Startpagina
METAR-TAF:

METAR-TAF

Vliegvelden :

Melbourne, Australië

Melbourne Airport

breedte: 37-40-24S, lengte: 144-50-36E, hoogte: 132 m

Actueel weer

Dit bericht is 34 minuten geleden gemaakt, om 09:30 UTC
Wind 14 kt uit het zuidoosten
Temperatuur 19°C
Vochtigheid 68%
Druk 1015 hPa
Zicht 10 km of meer
geen wolken onder 1500 m en geen cumulonimbus

METAR: YMML 190930Z 13019KT 9999 FEW035 19/13 Q1015 FM1100 13014KT CAVOK FM0930 MOD TURB BLW 5000FT

Tijdstip: 21:04 (10:04 UTC)

Verwachting

Dit bericht is 4 uur en het 48 minuten geleden gemaakt, om 05:16 UTC
Verwachting geldig van 19 om 06 UTC tot 20 om 12 UTC
Wind 20 kt uit het zuidzuidoosten met uitschieters tot 35 kt
Zicht 10 km of meer
Verspreide wolken op 3500 ft
Van 19 om 1100 UTC
Wind 14 kt uit het zuidoosten
Zicht 10 km of meer
geen wolken onder 1500 m en geen cumulonimbus
Van 19 om 2000 UTC
Wind 8 kt uit het zuiden
Zicht 10 km of meer
Verspreide wolken op 2500 ft

TAF: YMML 190516Z 1906/2012 15020G35KT 9999 SCT035 FM191100 14014KT CAVOK FM192000 19008KT 9999 SCT025

Waarnemingen en weersverwachtingen van meer dan 4000 vliegvelden (METAR en TAF).

De beschikbare stations zijn de gele en rode punten op de kaart.

Ga met uw muis naar het station om de naam te zien.

Klik dan om waarnemingen en weersverwachtingen te zien.

kaart wijzigen: klik op de groene knoppen met een zwart kruis om in te zoomen, op de groene knop met een streepje om uit te zoomen of op de groene pijlen voor aangrenzende kaarten.


METAR-TAF: